Agua Dulce, Texas
Current Conditions -  °F | °C
As of 1:53 AM on Saturday 25 Oct 2014 (Local Time) from KALI Reporting Station
Clear Clear  
Wind Chill: 65°   Ceiling: Unl
Heat Index: 65°   Visibility: 10mi
Dew Point: 60°   Wind: 5mph
Humidity: 84%   Direction: 240°WSW
Pressure: 30.13"   Gusts: NA
Location:  27.78°N, 97.91°W
Report Text: KALI 250653Z AUTO 24004KT 10SM CLR 18/16 A3013 RMK AO2 SLP201 T01830156
Loading
Personal Weather Stations






























Interactive Weather Map
Tropical Storm Tracking
New forecast layout! Learn more

10-Day Weather Forecast

Advertisements
Track Severe Weather on mobile